Overview Statistics Trail Chart Weather Telemetry Raw packets
 

This is the latest recevied weather packets stored in our database for station/object 9W2CHF-3. If no packets are shown the sender has not sent any weather packets the latest 10 day(s).

<< 22 23 24 25 26 27 28 >>
Time Temp. Humidity Pressure Rain* Wind** Luminosity Snow
1777064793 31.11° C 92% 1008.9 hPa - - - -
1777063593 31.11° C 91% 1009 hPa - - - -
1777062393 31.11° C 93% 1009 hPa - - - -
1777061193 31.11° C 95% 1008.9 hPa - - - -
1777059993 31.11° C 96% 1009.2 hPa - - - -
1777058793 30.56° C 97% 1009.1 hPa - - - -
1777057593 30.56° C 97% 1009.1 hPa - - - -
1777056392 30.56° C 97% 1009.2 hPa - - - -
1777055196 30.56° C 94% 1009.4 hPa - - - -
1777053996 30.56° C 96% 1009.7 hPa - - - -
1777052796 31.11° C 92% 1009.6 hPa - - - -
1777051596 31.11° C 92% 1009.7 hPa - - - -
1777050396 31.11° C 91% 1010 hPa - - - -
1777049196 32.22° C 88% 1010.2 hPa - - - -
1777047995 32.22° C 87% 1010.2 hPa - - - -
1777046795 32.22° C 83% 1010.5 hPa - - - -
1777045595 32.78° C 84% 1010.7 hPa - - - -
1777044395 33.33° C 79% 1010.7 hPa - - - -
1777043195 32.78° C 80% 1010.5 hPa - - - -
1777041995 35° C 69% 1010.5 hPa - - - -
1777040794 33.89° C 77% 1010.3 hPa - - - -
1777039594 31.67° C 86% 1010.3 hPa - - - -
1777038394 32.78° C 84% 1010.2 hPa - - - -
1777037194 32.22° C 87% 1009.9 hPa - - - -
1777035994 32.78° C 83% 1009.6 hPa - - - -

* Rain since midnight (hover to see other rain measurements)
** Current wind speed in m/s (hover to see current wind gust speed)